sensor_id;sensor_type;location;lat;lon;timestamp;temperature;humidity
8465;DHT22;4269;52.458;13.430;2022-08-19T00:01:28;21.80;99.90
8465;DHT22;4269;52.458;13.430;2022-08-19T00:03:58;22.30;99.90
8465;DHT22;4269;52.458;13.430;2022-08-19T00:06:26;22.10;99.90
8465;DHT22;4269;52.458;13.430;2022-08-19T00:08:51;22.10;99.90
8465;DHT22;4269;52.458;13.430;2022-08-19T00:11:17;22.20;99.90
8465;DHT22;4269;52.458;13.430;2022-08-19T00:13:43;22.20;99.90
8465;DHT22;4269;52.458;13.430;2022-08-19T00:16:11;22.00;99.90
8465;DHT22;4269;52.458;13.430;2022-08-19T00:18:36;22.40;99.90
8465;DHT22;4269;52.458;13.430;2022-08-19T00:21:02;22.40;99.90
8465;DHT22;4269;52.458;13.430;2022-08-19T00:23:28;22.80;99.90
8465;DHT22;4269;52.458;13.430;2022-08-19T00:25:54;22.60;99.90
8465;DHT22;4269;52.458;13.430;2022-08-19T00:28:20;22.50;99.90
8465;DHT22;4269;52.458;13.430;2022-08-19T00:30:46;22.40;99.90
8465;DHT22;4269;52.458;13.430;2022-08-19T00:33:11;22.50;99.90
8465;DHT22;4269;52.458;13.430;2022-08-19T00:35:37;22.50;99.90
8465;DHT22;4269;52.458;13.430;2022-08-19T00:38:04;22.50;99.90
8465;DHT22;4269;52.458;13.430;2022-08-19T00:45:25;22.20;99.90
8465;DHT22;4269;52.458;13.430;2022-08-19T00:50:19;22.10;99.90
8465;DHT22;4269;52.458;13.430;2022-08-19T00:52:48;22.10;99.90
8465;DHT22;4269;52.458;13.430;2022-08-19T00:55:22;22.00;99.90
8465;DHT22;4269;52.458;13.430;2022-08-19T00:57:56;22.10;99.90
8465;DHT22;4269;52.458;13.430;2022-08-19T01:00:25;22.10;99.90
8465;DHT22;4269;52.458;13.430;2022-08-19T01:02:52;22.50;99.90
8465;DHT22;4269;52.458;13.430;2022-08-19T01:05:21;22.30;99.90
8465;DHT22;4269;52.458;13.430;2022-08-19T01:07:48;22.20;99.90
8465;DHT22;4269;52.458;13.430;2022-08-19T01:10:16;22.30;99.90
8465;DHT22;4269;52.458;13.430;2022-08-19T01:12:45;22.30;99.90
8465;DHT22;4269;52.458;13.430;2022-08-19T01:15:12;22.50;99.90
8465;DHT22;4269;52.458;13.430;2022-08-19T01:17:40;22.60;99.90
8465;DHT22;4269;52.458;13.430;2022-08-19T01:20:07;22.60;99.90
8465;DHT22;4269;52.458;13.430;2022-08-19T01:22:42;23.00;99.90
8465;DHT22;4269;52.458;13.430;2022-08-19T01:25:08;22.50;99.90
8465;DHT22;4269;52.458;13.430;2022-08-19T01:27:46;22.70;99.90
8465;DHT22;4269;52.458;13.430;2022-08-19T01:30:19;22.10;99.90
8465;DHT22;4269;52.458;13.430;2022-08-19T01:32:45;22.50;99.90
8465;DHT22;4269;52.458;13.430;2022-08-19T01:35:12;22.70;99.90
8465;DHT22;4269;52.458;13.430;2022-08-19T01:38:43;22.70;99.90
8465;DHT22;4269;52.458;13.430;2022-08-19T01:40:39;22.50;99.90
8465;DHT22;4269;52.458;13.430;2022-08-19T01:43:05;22.40;99.90
8465;DHT22;4269;52.458;13.430;2022-08-19T01:45:33;22.40;99.90
8465;DHT22;4269;52.458;13.430;2022-08-19T01:47:59;22.00;99.90
8465;DHT22;4269;52.458;13.430;2022-08-19T01:50:25;22.50;99.90
8465;DHT22;4269;52.458;13.430;2022-08-19T01:52:52;22.50;99.90
8465;DHT22;4269;52.458;13.430;2022-08-19T01:55:20;22.90;99.90
8465;DHT22;4269;52.458;13.430;2022-08-19T01:57:49;22.30;99.90
8465;DHT22;4269;52.458;13.430;2022-08-19T02:00:18;22.40;99.90
8465;DHT22;4269;52.458;13.430;2022-08-19T02:02:44;22.00;99.90
8465;DHT22;4269;52.458;13.430;2022-08-19T02:05:11;22.00;99.90
8465;DHT22;4269;52.458;13.430;2022-08-19T02:07:38;21.90;99.90
8465;DHT22;4269;52.458;13.430;2022-08-19T02:10:07;21.90;99.90
8465;DHT22;4269;52.458;13.430;2022-08-19T02:15:00;21.40;99.90
8465;DHT22;4269;52.458;13.430;2022-08-19T02:22:20;21.20;99.90
8465;DHT22;4269;52.458;13.430;2022-08-19T02:27:13;21.20;99.90
8465;DHT22;4269;52.458;13.430;2022-08-19T02:32:06;21.20;99.90
8465;DHT22;4269;52.458;13.430;2022-08-19T02:36:58;21.30;99.90
8465;DHT22;4269;52.458;13.430;2022-08-19T02:44:17;21.40;99.90
8465;DHT22;4269;52.458;13.430;2022-08-19T02:46:45;21.40;99.90
8465;DHT22;4269;52.458;13.430;2022-08-19T02:49:12;21.50;99.90
8465;DHT22;4269;52.458;13.430;2022-08-19T02:51:40;21.90;99.90
8465;DHT22;4269;52.458;13.430;2022-08-19T02:54:08;21.70;99.90
8465;DHT22;4269;52.458;13.430;2022-08-19T02:56:36;21.60;99.90
8465;DHT22;4269;52.458;13.430;2022-08-19T02:59:03;21.80;99.90
8465;DHT22;4269;52.458;13.430;2022-08-19T03:01:32;21.70;99.90
8465;DHT22;4269;52.458;13.430;2022-08-19T03:04:00;21.90;99.90
8465;DHT22;4269;52.458;13.430;2022-08-19T03:06:46;21.70;99.90
8465;DHT22;4269;52.458;13.430;2022-08-19T03:09:13;21.20;99.90
8465;DHT22;4269;52.458;13.430;2022-08-19T03:14:06;22.20;99.90
8465;DHT22;4269;52.458;13.430;2022-08-19T03:16:35;21.60;99.90
8465;DHT22;4269;52.458;13.430;2022-08-19T03:19:02;22.10;99.90
8465;DHT22;4269;52.458;13.430;2022-08-19T03:21:30;21.90;99.90
8465;DHT22;4269;52.458;13.430;2022-08-19T03:23:58;22.00;99.90
8465;DHT22;4269;52.458;13.430;2022-08-19T03:31:21;21.50;99.90
8465;DHT22;4269;52.458;13.430;2022-08-19T03:33:49;21.70;99.90
8465;DHT22;4269;52.458;13.430;2022-08-19T03:36:19;21.60;99.90
8465;DHT22;4269;52.458;13.430;2022-08-19T03:38:48;21.60;99.90
8465;DHT22;4269;52.458;13.430;2022-08-19T03:41:17;21.60;99.90
8465;DHT22;4269;52.458;13.430;2022-08-19T03:43:44;21.50;99.90
8465;DHT22;4269;52.458;13.430;2022-08-19T03:46:16;21.40;99.90
8465;DHT22;4269;52.458;13.430;2022-08-19T03:48:43;21.40;99.90
8465;DHT22;4269;52.458;13.430;2022-08-19T03:51:17;21.60;99.90
8465;DHT22;4269;52.458;13.430;2022-08-19T03:56:09;21.50;99.90
8465;DHT22;4269;52.458;13.430;2022-08-19T03:58:35;21.50;99.90
8465;DHT22;4269;52.458;13.430;2022-08-19T04:05:54;21.70;99.90
8465;DHT22;4269;52.458;13.430;2022-08-19T04:08:20;21.70;99.90
8465;DHT22;4269;52.458;13.430;2022-08-19T04:10:48;21.80;99.90
8465;DHT22;4269;52.458;13.430;2022-08-19T04:13:16;21.60;99.90
8465;DHT22;4269;52.458;13.430;2022-08-19T04:15:43;21.70;99.90
8465;DHT22;4269;52.458;13.430;2022-08-19T04:18:09;21.70;99.90
8465;DHT22;4269;52.458;13.430;2022-08-19T04:20:43;21.70;99.90
8465;DHT22;4269;52.458;13.430;2022-08-19T04:25:41;21.70;99.90
8465;DHT22;4269;52.458;13.430;2022-08-19T04:28:07;21.80;99.90
8465;DHT22;4269;52.458;13.430;2022-08-19T04:30:43;21.80;99.90
8465;DHT22;4269;52.458;13.430;2022-08-19T04:33:10;21.30;99.90
8465;DHT22;4269;52.458;13.430;2022-08-19T04:35:39;21.90;99.90
8465;DHT22;4269;52.458;13.430;2022-08-19T04:40:32;22.40;99.90
8465;DHT22;4269;52.458;13.430;2022-08-19T04:45:43;21.90;99.90
8465;DHT22;4269;52.458;13.430;2022-08-19T04:53:01;22.50;99.90
8465;DHT22;4269;52.458;13.430;2022-08-19T04:55:27;22.00;99.90
8465;DHT22;4269;52.458;13.430;2022-08-19T04:57:53;22.10;99.90
8465;DHT22;4269;52.458;13.430;2022-08-19T05:00:19;22.20;99.90
8465;DHT22;4269;52.458;13.430;2022-08-19T05:02:45;22.20;99.90
8465;DHT22;4269;52.458;13.430;2022-08-19T05:05:10;25.80;99.90
8465;DHT22;4269;52.458;13.430;2022-08-19T05:10:04;22.30;99.90
8465;DHT22;4269;52.458;13.430;2022-08-19T05:14:57;22.60;99.90
8465;DHT22;4269;52.458;13.430;2022-08-19T05:22:33;22.50;99.90
8465;DHT22;4269;52.458;13.430;2022-08-19T05:25:05;22.40;99.90
8465;DHT22;4269;52.458;13.430;2022-08-19T05:29:57;22.60;99.90
8465;DHT22;4269;52.458;13.430;2022-08-19T05:34:49;22.40;99.90
8465;DHT22;4269;52.458;13.430;2022-08-19T05:37:15;22.70;99.90
8465;DHT22;4269;52.458;13.430;2022-08-19T05:42:08;22.70;99.90
8465;DHT22;4269;52.458;13.430;2022-08-19T05:44:39;22.80;99.90
8465;DHT22;4269;52.458;13.430;2022-08-19T05:47:10;22.80;99.90
8465;DHT22;4269;52.458;13.430;2022-08-19T05:49:36;22.80;99.90
8465;DHT22;4269;52.458;13.430;2022-08-19T05:52:08;22.80;99.90
8465;DHT22;4269;52.458;13.430;2022-08-19T05:54:36;22.40;99.90
8465;DHT22;4269;52.458;13.430;2022-08-19T05:57:06;22.70;99.90
8465;DHT22;4269;52.458;13.430;2022-08-19T05:59:32;22.70;99.90
8465;DHT22;4269;52.458;13.430;2022-08-19T06:06:53;23.10;99.90
8465;DHT22;4269;52.458;13.430;2022-08-19T06:09:20;23.10;99.90
8465;DHT22;4269;52.458;13.430;2022-08-19T06:11:50;23.20;99.90
8465;DHT22;4269;52.458;13.430;2022-08-19T06:14:20;23.30;99.90
8465;DHT22;4269;52.458;13.430;2022-08-19T06:19:16;23.30;99.90
8465;DHT22;4269;52.458;13.430;2022-08-19T06:21:44;23.50;99.90
8465;DHT22;4269;52.458;13.430;2022-08-19T06:24:12;23.60;99.90
8465;DHT22;4269;52.458;13.430;2022-08-19T06:26:39;23.60;99.90
8465;DHT22;4269;52.458;13.430;2022-08-19T06:29:06;23.90;99.90
8465;DHT22;4269;52.458;13.430;2022-08-19T06:31:34;24.00;99.90
8465;DHT22;4269;52.458;13.430;2022-08-19T06:34:01;24.00;99.90
8465;DHT22;4269;52.458;13.430;2022-08-19T06:36:31;24.10;99.90
8465;DHT22;4269;52.458;13.430;2022-08-19T06:39:01;24.00;99.90
8465;DHT22;4269;52.458;13.430;2022-08-19T06:41:28;23.70;99.90
8465;DHT22;4269;52.458;13.430;2022-08-19T06:43:55;23.90;99.90
8465;DHT22;4269;52.458;13.430;2022-08-19T06:46:21;23.90;99.90
8465;DHT22;4269;52.458;13.430;2022-08-19T06:48:47;23.60;99.90
8465;DHT22;4269;52.458;13.430;2022-08-19T06:51:17;23.60;99.90
8465;DHT22;4269;52.458;13.430;2022-08-19T06:53:47;23.70;99.90
8465;DHT22;4269;52.458;13.430;2022-08-19T06:56:21;23.70;99.90
8465;DHT22;4269;52.458;13.430;2022-08-19T06:58:47;23.80;99.90
8465;DHT22;4269;52.458;13.430;2022-08-19T07:01:16;23.60;99.90
8465;DHT22;4269;52.458;13.430;2022-08-19T07:06:10;23.70;99.90
8465;DHT22;4269;52.458;13.430;2022-08-19T07:08:38;23.70;99.90
8465;DHT22;4269;52.458;13.430;2022-08-19T07:11:11;23.80;99.90
8465;DHT22;4269;52.458;13.430;2022-08-19T07:16:08;24.10;99.90
8465;DHT22;4269;52.458;13.430;2022-08-19T07:18:34;24.20;99.90
8465;DHT22;4269;52.458;13.430;2022-08-19T07:21:05;24.60;99.90
8465;DHT22;4269;52.458;13.430;2022-08-19T07:23:31;24.20;99.90
8465;DHT22;4269;52.458;13.430;2022-08-19T07:38:09;24.50;99.90
8465;DHT22;4269;52.458;13.430;2022-08-19T07:45:27;24.10;99.90
8465;DHT22;4269;52.458;13.430;2022-08-19T07:47:54;24.30;99.90
8465;DHT22;4269;52.458;13.430;2022-08-19T07:50:20;24.40;99.90
8465;DHT22;4269;52.458;13.430;2022-08-19T07:57:40;24.70;99.90
8465;DHT22;4269;52.458;13.430;2022-08-19T08:00:06;24.60;99.90
8465;DHT22;4269;52.458;13.430;2022-08-19T08:02:32;24.80;99.90
8465;DHT22;4269;52.458;13.430;2022-08-19T08:07:42;24.30;99.90
8465;DHT22;4269;52.458;13.430;2022-08-19T08:10:26;23.90;99.90
8465;DHT22;4269;52.458;13.430;2022-08-19T08:12:52;23.80;99.90
8465;DHT22;4269;52.458;13.430;2022-08-19T08:15:18;23.90;99.90
8465;DHT22;4269;52.458;13.430;2022-08-19T08:17:44;24.00;99.90
8465;DHT22;4269;52.458;13.430;2022-08-19T08:20:10;24.10;99.90
8465;DHT22;4269;52.458;13.430;2022-08-19T08:22:36;24.40;99.90
8465;DHT22;4269;52.458;13.430;2022-08-19T08:25:22;24.10;99.90
8465;DHT22;4269;52.458;13.430;2022-08-19T08:27:49;24.40;99.90
8465;DHT22;4269;52.458;13.430;2022-08-19T08:30:25;24.20;99.90
8465;DHT22;4269;52.458;13.430;2022-08-19T08:32:51;24.40;99.90
8465;DHT22;4269;52.458;13.430;2022-08-19T08:35:20;24.50;99.90
8465;DHT22;4269;52.458;13.430;2022-08-19T08:37:47;24.30;99.90
8465;DHT22;4269;52.458;13.430;2022-08-19T08:43:32;24.40;99.90
8465;DHT22;4269;52.458;13.430;2022-08-19T08:46:05;24.70;99.90
8465;DHT22;4269;52.458;13.430;2022-08-19T08:48:38;24.70;99.90
8465;DHT22;4269;52.458;13.430;2022-08-19T08:51:10;24.70;99.90
8465;DHT22;4269;52.458;13.430;2022-08-19T08:53:38;24.80;99.90
8465;DHT22;4269;52.458;13.430;2022-08-19T08:56:06;24.70;99.90
8465;DHT22;4269;52.458;13.430;2022-08-19T08:58:36;27.10;99.90
8465;DHT22;4269;52.458;13.430;2022-08-19T09:01:09;24.70;99.90
8465;DHT22;4269;52.458;13.430;2022-08-19T09:03:37;24.70;99.90
8465;DHT22;4269;52.458;13.430;2022-08-19T09:06:07;24.40;99.90
8465;DHT22;4269;52.458;13.430;2022-08-19T09:08:48;24.20;99.90
8465;DHT22;4269;52.458;13.430;2022-08-19T09:11:24;24.30;99.90
8465;DHT22;4269;52.458;13.430;2022-08-19T09:16:29;24.50;99.90
8465;DHT22;4269;52.458;13.430;2022-08-19T09:19:07;24.50;99.90
8465;DHT22;4269;52.458;13.430;2022-08-19T09:21:33;25.10;99.90
8465;DHT22;4269;52.458;13.430;2022-08-19T09:24:02;25.00;99.90
8465;DHT22;4269;52.458;13.430;2022-08-19T09:26:29;24.80;99.90
8465;DHT22;4269;52.458;13.430;2022-08-19T09:31:25;24.80;99.90
8465;DHT22;4269;52.458;13.430;2022-08-19T09:33:52;24.80;99.90
8465;DHT22;4269;52.458;13.430;2022-08-19T09:38:48;24.50;99.90
8465;DHT22;4269;52.458;13.430;2022-08-19T09:41:18;24.60;99.90
8465;DHT22;4269;52.458;13.430;2022-08-19T09:43:46;24.80;99.90
8465;DHT22;4269;52.458;13.430;2022-08-19T09:48:39;24.80;99.90
8465;DHT22;4269;52.458;13.430;2022-08-19T09:51:08;24.50;99.90
8465;DHT22;4269;52.458;13.430;2022-08-19T09:53:35;24.60;99.90
8465;DHT22;4269;52.458;13.430;2022-08-19T09:56:01;24.60;99.90
8465;DHT22;4269;52.458;13.430;2022-08-19T10:00:57;24.50;99.90
8465;DHT22;4269;52.458;13.430;2022-08-19T10:03:24;24.70;99.90
8465;DHT22;4269;52.458;13.430;2022-08-19T10:05:50;24.50;99.90
8465;DHT22;4269;52.458;13.430;2022-08-19T10:08:28;25.10;99.90
8465;DHT22;4269;52.458;13.430;2022-08-19T10:10:55;24.90;99.90
8465;DHT22;4269;52.458;13.430;2022-08-19T10:13:23;24.80;99.90
8465;DHT22;4269;52.458;13.430;2022-08-19T10:15:51;25.00;99.90
8465;DHT22;4269;52.458;13.430;2022-08-19T10:18:20;24.80;99.90
8465;DHT22;4269;52.458;13.430;2022-08-19T10:20:47;24.40;99.90
8465;DHT22;4269;52.458;13.430;2022-08-19T10:23:14;24.40;99.90
8465;DHT22;4269;52.458;13.430;2022-08-19T10:28:06;24.50;99.90
8465;DHT22;4269;52.458;13.430;2022-08-19T10:35:24;24.50;99.90
8465;DHT22;4269;52.458;13.430;2022-08-19T10:37:52;24.30;99.90
8465;DHT22;4269;52.458;13.430;2022-08-19T10:40:18;24.10;99.90
8465;DHT22;4269;52.458;13.430;2022-08-19T10:47:36;23.90;99.90
8465;DHT22;4269;52.458;13.430;2022-08-19T10:50:04;24.00;99.90
8465;DHT22;4269;52.458;13.430;2022-08-19T10:52:49;23.90;99.90
8465;DHT22;4269;52.458;13.430;2022-08-19T10:58:01;23.90;99.90
8465;DHT22;4269;52.458;13.430;2022-08-19T11:00:26;23.80;99.90
8465;DHT22;4269;52.458;13.430;2022-08-19T11:05:19;23.90;99.90
8465;DHT22;4269;52.458;13.430;2022-08-19T11:07:45;23.90;99.90
8465;DHT22;4269;52.458;13.430;2022-08-19T11:10:13;23.60;99.90
8465;DHT22;4269;52.458;13.430;2022-08-19T11:12:40;23.70;99.90
8465;DHT22;4269;52.458;13.430;2022-08-19T11:15:07;23.80;99.90
8465;DHT22;4269;52.458;13.430;2022-08-19T11:20:01;23.80;99.90
8465;DHT22;4269;52.458;13.430;2022-08-19T11:27:21;24.00;99.90
8465;DHT22;4269;52.458;13.430;2022-08-19T11:29:47;23.70;99.90
8465;DHT22;4269;52.458;13.430;2022-08-19T11:32:12;23.60;99.90
8465;DHT22;4269;52.458;13.430;2022-08-19T11:37:05;23.70;99.90
8465;DHT22;4269;52.458;13.430;2022-08-19T11:39:33;23.80;99.90
8465;DHT22;4269;52.458;13.430;2022-08-19T11:42:00;23.80;99.90
8465;DHT22;4269;52.458;13.430;2022-08-19T11:44:26;23.90;99.90
8465;DHT22;4269;52.458;13.430;2022-08-19T11:46:55;23.90;99.90
8465;DHT22;4269;52.458;13.430;2022-08-19T11:49:21;24.10;99.90
8465;DHT22;4269;52.458;13.430;2022-08-19T11:51:47;24.00;99.90
8465;DHT22;4269;52.458;13.430;2022-08-19T11:56:42;24.00;99.90
8465;DHT22;4269;52.458;13.430;2022-08-19T11:59:09;24.00;99.90
8465;DHT22;4269;52.458;13.430;2022-08-19T12:01:36;23.90;99.90
8465;DHT22;4269;52.458;13.430;2022-08-19T12:06:31;23.90;99.90
8465;DHT22;4269;52.458;13.430;2022-08-19T12:09:02;23.90;99.90
8465;DHT22;4269;52.458;13.430;2022-08-19T12:13:54;23.70;99.90
8465;DHT22;4269;52.458;13.430;2022-08-19T12:16:24;23.90;99.90
8465;DHT22;4269;52.458;13.430;2022-08-19T12:21:20;24.00;99.90
8465;DHT22;4269;52.458;13.430;2022-08-19T12:36:06;24.50;99.90
8465;DHT22;4269;52.458;13.430;2022-08-19T12:38:32;24.40;99.90
8465;DHT22;4269;52.458;13.430;2022-08-19T12:41:00;24.30;99.90
8465;DHT22;4269;52.458;13.430;2022-08-19T12:43:26;24.40;99.90
8465;DHT22;4269;52.458;13.430;2022-08-19T12:50:44;25.20;99.90
8465;DHT22;4269;52.458;13.430;2022-08-19T12:53:14;25.30;99.90
8465;DHT22;4269;52.458;13.430;2022-08-19T12:58:06;26.20;99.90
8465;DHT22;4269;52.458;13.430;2022-08-19T13:02:58;25.70;99.90
8465;DHT22;4269;52.458;13.430;2022-08-19T13:05:28;25.80;99.90
8465;DHT22;4269;52.458;13.430;2022-08-19T13:07:56;25.80;99.90
8465;DHT22;4269;52.458;13.430;2022-08-19T13:10:24;25.50;99.90
8465;DHT22;4269;52.458;13.430;2022-08-19T13:12:51;25.20;99.90
8465;DHT22;4269;52.458;13.430;2022-08-19T13:15:22;25.30;99.90
8465;DHT22;4269;52.458;13.430;2022-08-19T13:17:49;24.90;99.90
8465;DHT22;4269;52.458;13.430;2022-08-19T13:20:17;24.90;99.90
8465;DHT22;4269;52.458;13.430;2022-08-19T13:22:44;24.80;99.90
8465;DHT22;4269;52.458;13.430;2022-08-19T13:25:11;24.70;99.90
8465;DHT22;4269;52.458;13.430;2022-08-19T13:27:38;24.70;99.90
8465;DHT22;4269;52.458;13.430;2022-08-19T13:30:06;24.70;99.90
8465;DHT22;4269;52.458;13.430;2022-08-19T13:32:51;24.70;99.90
8465;DHT22;4269;52.458;13.430;2022-08-19T13:45:27;24.30;99.90
8465;DHT22;4269;52.458;13.430;2022-08-19T13:47:54;24.30;99.90
8465;DHT22;4269;52.458;13.430;2022-08-19T13:50:25;24.10;99.90
8465;DHT22;4269;52.458;13.430;2022-08-19T13:52:52;24.10;99.90
8465;DHT22;4269;52.458;13.430;2022-08-19T14:00:15;24.20;99.90
8465;DHT22;4269;52.458;13.430;2022-08-19T14:02:44;24.40;99.90
8465;DHT22;4269;52.458;13.430;2022-08-19T14:05:15;24.50;99.90
8465;DHT22;4269;52.458;13.430;2022-08-19T14:10:11;24.70;99.90
8465;DHT22;4269;52.458;13.430;2022-08-19T14:18:28;24.80;99.90
8465;DHT22;4269;52.458;13.430;2022-08-19T14:20:54;24.90;99.90
8465;DHT22;4269;52.458;13.430;2022-08-19T14:33:10;24.80;99.90
8465;DHT22;4269;52.458;13.430;2022-08-19T14:35:36;25.80;99.90
8465;DHT22;4269;52.458;13.430;2022-08-19T14:38:06;25.10;99.90
8465;DHT22;4269;52.458;13.430;2022-08-19T14:40:32;25.10;99.90
8465;DHT22;4269;52.458;13.430;2022-08-19T14:43:03;24.80;99.90
8465;DHT22;4269;52.458;13.430;2022-08-19T14:45:32;24.70;99.90
8465;DHT22;4269;52.458;13.430;2022-08-19T14:50:26;24.50;99.90
8465;DHT22;4269;52.458;13.430;2022-08-19T14:53:02;24.50;99.90
8465;DHT22;4269;52.458;13.430;2022-08-19T14:55:29;24.40;99.90
8465;DHT22;4269;52.458;13.430;2022-08-19T14:57:55;24.70;99.90
8465;DHT22;4269;52.458;13.430;2022-08-19T15:02:50;24.60;99.90
8465;DHT22;4269;52.458;13.430;2022-08-19T15:05:16;24.40;99.90
8465;DHT22;4269;52.458;13.430;2022-08-19T15:10:11;24.90;99.90
8465;DHT22;4269;52.458;13.430;2022-08-19T15:15:07;24.10;99.90
8465;DHT22;4269;52.458;13.430;2022-08-19T15:17:33;24.20;99.90
8465;DHT22;4269;52.458;13.430;2022-08-19T15:23:44;24.10;99.90
8465;DHT22;4269;52.458;13.430;2022-08-19T15:26:09;24.00;99.90
8465;DHT22;4269;52.458;13.430;2022-08-19T15:28:38;23.90;99.90
8465;DHT22;4269;52.458;13.430;2022-08-19T15:31:04;23.90;99.90
8465;DHT22;4269;52.458;13.430;2022-08-19T15:33:32;23.90;99.90
8465;DHT22;4269;52.458;13.430;2022-08-19T15:43:42;23.70;99.90
8465;DHT22;4269;52.458;13.430;2022-08-19T15:46:08;23.80;99.90
8465;DHT22;4269;52.458;13.430;2022-08-19T15:48:36;23.50;99.90
8465;DHT22;4269;52.458;13.430;2022-08-19T15:51:03;23.50;99.90
8465;DHT22;4269;52.458;13.430;2022-08-19T16:01:07;23.00;99.90
8465;DHT22;4269;52.458;13.430;2022-08-19T16:03:53;23.20;99.90
8465;DHT22;4269;52.458;13.430;2022-08-19T16:11:33;23.00;99.90
8465;DHT22;4269;52.458;13.430;2022-08-19T16:16:30;22.90;99.90
8465;DHT22;4269;52.458;13.430;2022-08-19T16:18:58;22.90;99.90
8465;DHT22;4269;52.458;13.430;2022-08-19T16:21:26;22.90;99.90
8465;DHT22;4269;52.458;13.430;2022-08-19T16:28:51;23.70;99.90
8465;DHT22;4269;52.458;13.430;2022-08-19T16:38:36;23.10;99.90
8465;DHT22;4269;52.458;13.430;2022-08-19T16:45:58;23.00;99.90
8465;DHT22;4269;52.458;13.430;2022-08-19T16:48:28;23.10;99.90
8465;DHT22;4269;52.458;13.430;2022-08-19T16:50:56;23.00;99.90
8465;DHT22;4269;52.458;13.430;2022-08-19T16:53:24;23.00;99.90
8465;DHT22;4269;52.458;13.430;2022-08-19T16:55:53;23.00;99.90
8465;DHT22;4269;52.458;13.430;2022-08-19T17:03:20;22.90;99.90
8465;DHT22;4269;52.458;13.430;2022-08-19T17:05:51;22.90;99.90
8465;DHT22;4269;52.458;13.430;2022-08-19T17:10:55;22.80;99.90
8465;DHT22;4269;52.458;13.430;2022-08-19T17:21:01;22.70;99.90
8465;DHT22;4269;52.458;13.430;2022-08-19T17:23:33;22.70;99.90
8465;DHT22;4269;52.458;13.430;2022-08-19T17:26:27;22.70;99.90
8465;DHT22;4269;52.458;13.430;2022-08-19T17:31:29;22.60;99.90
8465;DHT22;4269;52.458;13.430;2022-08-19T17:44:00;22.50;99.90
8465;DHT22;4269;52.458;13.430;2022-08-19T17:54:12;22.30;99.90
8465;DHT22;4269;52.458;13.430;2022-08-19T18:06:32;22.20;99.90
8465;DHT22;4269;52.458;13.430;2022-08-19T18:16:18;22.40;99.90
8465;DHT22;4269;52.458;13.430;2022-08-19T18:28:35;22.20;99.90
8465;DHT22;4269;52.458;13.430;2022-08-19T18:31:00;22.10;99.90
8465;DHT22;4269;52.458;13.430;2022-08-19T18:33:31;21.40;99.90
8465;DHT22;4269;52.458;13.430;2022-08-19T18:36:04;22.10;99.90
8465;DHT22;4269;52.458;13.430;2022-08-19T18:44:03;22.20;99.90
8465;DHT22;4269;52.458;13.430;2022-08-19T18:49:33;22.00;99.90
8465;DHT22;4269;52.458;13.430;2022-08-19T18:51:59;22.20;99.90
8465;DHT22;4269;52.458;13.430;2022-08-19T18:56:53;22.20;99.90
8465;DHT22;4269;52.458;13.430;2022-08-19T18:59:23;22.10;99.90
8465;DHT22;4269;52.458;13.430;2022-08-19T19:01:50;21.90;99.90
8465;DHT22;4269;52.458;13.430;2022-08-19T19:04:20;21.90;99.90
8465;DHT22;4269;52.458;13.430;2022-08-19T19:09:15;22.10;99.90
8465;DHT22;4269;52.458;13.430;2022-08-19T19:11:45;22.40;99.90
8465;DHT22;4269;52.458;13.430;2022-08-19T19:14:35;22.00;99.90
8465;DHT22;4269;52.458;13.430;2022-08-19T19:17:05;22.20;99.90
8465;DHT22;4269;52.458;13.430;2022-08-19T19:19:32;22.10;99.90
8465;DHT22;4269;52.458;13.430;2022-08-19T19:24:29;22.20;99.90
8465;DHT22;4269;52.458;13.430;2022-08-19T19:26:59;22.00;99.90
8465;DHT22;4269;52.458;13.430;2022-08-19T19:31:55;22.60;99.90
8465;DHT22;4269;52.458;13.430;2022-08-19T19:34:23;22.30;99.90
8465;DHT22;4269;52.458;13.430;2022-08-19T19:36:50;22.30;99.90
8465;DHT22;4269;52.458;13.430;2022-08-19T19:41:42;22.30;99.90
8465;DHT22;4269;52.458;13.430;2022-08-19T19:46:36;22.30;99.90
8465;DHT22;4269;52.458;13.430;2022-08-19T19:51:33;22.20;99.90
8465;DHT22;4269;52.458;13.430;2022-08-19T20:01:20;22.20;99.90
8465;DHT22;4269;52.458;13.430;2022-08-19T20:06:18;22.30;99.90
8465;DHT22;4269;52.458;13.430;2022-08-19T20:08:45;21.90;99.90
8465;DHT22;4269;52.458;13.430;2022-08-19T20:14:16;22.00;99.90
8465;DHT22;4269;52.458;13.430;2022-08-19T20:16:44;22.50;99.90
8465;DHT22;4269;52.458;13.430;2022-08-19T20:19:13;22.20;99.90
8465;DHT22;4269;52.458;13.430;2022-08-19T20:21:40;22.20;99.90
8465;DHT22;4269;52.458;13.430;2022-08-19T20:24:21;22.20;99.90
8465;DHT22;4269;52.458;13.430;2022-08-19T20:26:48;22.30;99.90
8465;DHT22;4269;52.458;13.430;2022-08-19T20:29:16;22.30;99.90
8465;DHT22;4269;52.458;13.430;2022-08-19T20:31:44;22.20;99.90
8465;DHT22;4269;52.458;13.430;2022-08-19T20:34:16;22.30;99.90
8465;DHT22;4269;52.458;13.430;2022-08-19T20:47:09;22.00;99.90
8465;DHT22;4269;52.458;13.430;2022-08-19T21:01:51;21.80;99.90
8465;DHT22;4269;52.458;13.430;2022-08-19T21:04:18;21.80;99.90
8465;DHT22;4269;52.458;13.430;2022-08-19T21:06:45;21.80;99.90
8465;DHT22;4269;52.458;13.430;2022-08-19T21:14:03;21.70;99.90
8465;DHT22;4269;52.458;13.430;2022-08-19T21:18:59;21.80;99.90
8465;DHT22;4269;52.458;13.430;2022-08-19T21:23:55;21.80;99.90
8465;DHT22;4269;52.458;13.430;2022-08-19T21:26:21;21.80;99.90
8465;DHT22;4269;52.458;13.430;2022-08-19T21:41:04;22.00;99.90
8465;DHT22;4269;52.458;13.430;2022-08-19T21:43:31;22.00;99.90
8465;DHT22;4269;52.458;13.430;2022-08-19T21:45:56;21.80;99.90
8465;DHT22;4269;52.458;13.430;2022-08-19T21:50:57;21.90;99.90
8465;DHT22;4269;52.458;13.430;2022-08-19T21:55:50;21.80;99.90
8465;DHT22;4269;52.458;13.430;2022-08-19T21:58:16;21.80;99.90
8465;DHT22;4269;52.458;13.430;2022-08-19T22:00:41;21.80;99.90
8465;DHT22;4269;52.458;13.430;2022-08-19T22:05:33;21.70;99.90
8465;DHT22;4269;52.458;13.430;2022-08-19T22:08:00;21.70;99.90
8465;DHT22;4269;52.458;13.430;2022-08-19T22:10:29;21.60;99.90
8465;DHT22;4269;52.458;13.430;2022-08-19T22:12:56;21.60;99.90
8465;DHT22;4269;52.458;13.430;2022-08-19T22:15:24;21.60;99.90
8465;DHT22;4269;52.458;13.430;2022-08-19T22:20:22;21.50;99.90
8465;DHT22;4269;52.458;13.430;2022-08-19T22:23:01;21.50;99.90
8465;DHT22;4269;52.458;13.430;2022-08-19T22:25:33;21.50;99.90
8465;DHT22;4269;52.458;13.430;2022-08-19T22:28:03;21.50;99.90
8465;DHT22;4269;52.458;13.430;2022-08-19T22:30:31;21.60;99.90
8465;DHT22;4269;52.458;13.430;2022-08-19T22:32:58;21.50;99.90
8465;DHT22;4269;52.458;13.430;2022-08-19T22:35:29;20.80;99.90
8465;DHT22;4269;52.458;13.430;2022-08-19T22:37:59;21.50;99.90
8465;DHT22;4269;52.458;13.430;2022-08-19T22:40:27;21.40;99.90
8465;DHT22;4269;52.458;13.430;2022-08-19T22:43:03;21.60;99.90
8465;DHT22;4269;52.458;13.430;2022-08-19T22:45:30;21.60;99.90
8465;DHT22;4269;52.458;13.430;2022-08-19T22:50:23;21.50;99.90
8465;DHT22;4269;52.458;13.430;2022-08-19T22:52:57;21.60;99.90
8465;DHT22;4269;52.458;13.430;2022-08-19T22:55:24;21.60;99.90
8465;DHT22;4269;52.458;13.430;2022-08-19T23:00:21;19.80;99.90
8465;DHT22;4269;52.458;13.430;2022-08-19T23:02:47;21.60;99.90